createdAt,value
2023-05-15T00:01:27.730Z,11.47
2023-05-15T00:03:55.370Z,11.49
2023-05-15T00:06:22.386Z,11.50
2023-05-15T00:08:49.075Z,11.40
2023-05-15T00:11:15.949Z,11.29
2023-05-15T00:13:42.664Z,11.36
2023-05-15T00:16:09.724Z,11.34
2023-05-15T00:18:36.808Z,11.30
2023-05-15T00:21:03.643Z,11.47
2023-05-15T00:23:30.361Z,11.42
2023-05-15T00:25:57.068Z,11.36
2023-05-15T00:28:23.758Z,11.50
2023-05-15T00:30:50.533Z,11.48
2023-05-15T00:33:17.191Z,11.24
2023-05-15T00:35:44.081Z,11.29
2023-05-15T00:38:11.335Z,11.33
2023-05-15T00:40:39.810Z,11.53
2023-05-15T00:43:06.877Z,11.62
2023-05-15T00:45:34.375Z,11.50
2023-05-15T00:48:01.859Z,11.46
2023-05-15T01:09:36.839Z,11.44
2023-05-15T01:12:11.650Z,11.53
2023-05-15T01:14:44.502Z,11.56
2023-05-15T01:17:17.435Z,11.48
2023-05-15T01:19:52.891Z,11.63
2023-05-15T01:22:41.199Z,11.51
2023-05-15T01:25:32.012Z,11.48
2023-05-15T01:28:09.792Z,11.35
2023-05-15T01:30:45.024Z,11.21
2023-05-15T01:33:32.936Z,11.47
2023-05-15T01:36:27.155Z,11.45
2023-05-15T01:39:03.105Z,11.50
2023-05-15T01:41:53.492Z,11.48
2023-05-15T01:44:31.749Z,11.56
2023-05-15T01:47:10.155Z,11.49
2023-05-15T01:49:45.811Z,11.36
2023-05-15T01:52:25.562Z,11.31
2023-05-15T01:54:58.774Z,11.37
2023-05-15T01:57:32.132Z,11.34
2023-05-15T02:00:05.978Z,11.46
2023-05-15T02:02:39.412Z,11.44
2023-05-15T02:05:13.366Z,11.55
2023-05-15T02:10:18.730Z,11.56
2023-05-15T02:12:46.035Z,11.68
2023-05-15T02:15:13.655Z,11.53
2023-05-15T02:17:40.970Z,11.59
2023-05-15T02:20:08.733Z,11.59
2023-05-15T02:22:35.447Z,11.62
2023-05-15T02:25:02.449Z,11.43
2023-05-15T02:27:38.861Z,11.55
2023-05-15T02:30:31.595Z,11.64
2023-05-15T02:33:19.879Z,11.53
2023-05-15T02:35:57.164Z,11.52
2023-05-15T02:41:01.958Z,11.43
2023-05-15T02:43:29.354Z,11.49
2023-05-15T02:45:57.251Z,11.54
2023-05-15T02:48:25.478Z,11.43
2023-05-15T02:50:52.621Z,11.45
2023-05-15T02:53:19.246Z,11.52
2023-05-15T02:55:45.919Z,11.45
2023-05-15T02:58:12.833Z,11.43
2023-05-15T03:00:39.546Z,11.39
2023-05-15T03:03:06.163Z,11.53
2023-05-15T03:05:32.847Z,11.43
2023-05-15T03:08:00.976Z,11.39
2023-05-15T03:13:01.421Z,11.41
2023-05-15T03:17:59.456Z,11.34
2023-05-15T03:20:26.086Z,11.30
2023-05-15T03:22:52.869Z,11.41
2023-05-15T03:25:19.481Z,11.26
2023-05-15T03:27:46.106Z,11.41
2023-05-15T03:30:12.799Z,11.53
2023-05-15T03:32:39.537Z,11.60
2023-05-15T03:35:06.429Z,11.57
2023-05-15T03:37:33.364Z,11.55
2023-05-15T03:40:00.083Z,11.51
2023-05-15T03:42:28.084Z,11.41
2023-05-15T03:44:56.344Z,11.33
2023-05-15T03:49:59.967Z,11.35
2023-05-15T03:52:26.634Z,11.37
2023-05-15T03:54:53.417Z,11.41
2023-05-15T03:57:20.116Z,11.43
2023-05-15T03:59:46.767Z,11.52
2023-05-15T04:02:13.523Z,11.50
2023-05-15T04:04:40.252Z,11.54
2023-05-15T04:07:07.348Z,11.55
2023-05-15T04:09:33.992Z,11.48
2023-05-15T04:12:00.751Z,11.36
2023-05-15T04:14:27.446Z,11.54
2023-05-15T04:16:54.131Z,11.50
2023-05-15T04:19:20.966Z,11.57
2023-05-15T04:21:47.684Z,11.68
2023-05-15T04:24:14.309Z,11.78
2023-05-15T04:26:42.175Z,11.84
2023-05-15T04:29:09.599Z,11.86
2023-05-15T04:31:36.533Z,11.93
2023-05-15T04:34:04.605Z,11.90
2023-05-15T04:36:32.250Z,11.85
2023-05-15T04:38:58.876Z,11.90
2023-05-15T04:41:25.721Z,12.01
2023-05-15T04:43:52.446Z,12.00
2023-05-15T04:46:19.126Z,12.10
2023-05-15T04:48:45.871Z,12.03
2023-05-15T04:51:12.532Z,12.04
2023-05-15T04:53:39.213Z,12.24
2023-05-15T04:56:05.909Z,12.12
2023-05-15T04:58:32.608Z,12.23
2023-05-15T05:03:36.530Z,12.25
2023-05-15T05:06:03.206Z,12.40
2023-05-15T05:08:29.884Z,12.42
2023-05-15T05:10:57.663Z,12.33
2023-05-15T05:13:24.308Z,12.37
2023-05-15T05:15:51.074Z,12.43
2023-05-15T05:18:17.773Z,12.46
2023-05-15T05:20:44.411Z,12.56
2023-05-15T05:25:48.103Z,12.68
2023-05-15T05:28:15.191Z,12.65
2023-05-15T05:30:45.581Z,12.69
2023-05-15T05:33:12.712Z,12.68
2023-05-15T05:35:39.567Z,12.64
2023-05-15T05:38:06.244Z,12.62
2023-05-15T05:40:33.103Z,12.64
2023-05-15T05:45:41.219Z,12.81
2023-05-15T05:48:08.018Z,13.10
2023-05-15T05:50:34.717Z,13.09
2023-05-15T05:53:01.431Z,13.18
2023-05-15T05:55:28.091Z,13.23
2023-05-15T05:57:55.013Z,13.24
2023-05-15T06:00:21.924Z,13.44
2023-05-15T06:02:48.793Z,13.36
2023-05-15T06:05:15.754Z,13.29
2023-05-15T06:07:43.367Z,13.47
2023-05-15T06:10:10.486Z,13.60
2023-05-15T06:12:37.133Z,13.88
2023-05-15T06:15:04.178Z,14.13
2023-05-15T06:17:30.893Z,14.40
2023-05-15T06:19:57.857Z,14.55
2023-05-15T06:22:24.570Z,14.75
2023-05-15T06:24:51.314Z,14.79
2023-05-15T06:27:17.922Z,15.11
2023-05-15T06:29:44.613Z,15.14
2023-05-15T06:32:11.310Z,15.32
2023-05-15T06:34:37.906Z,15.58
2023-05-15T06:37:04.807Z,15.77
2023-05-15T06:39:31.551Z,15.80
2023-05-15T06:42:01.639Z,15.95
2023-05-15T06:44:28.799Z,15.84
2023-05-15T06:46:55.611Z,16.07
2023-05-15T06:49:22.433Z,16.28
2023-05-15T06:51:49.231Z,16.27
2023-05-15T06:54:15.870Z,16.02
2023-05-15T06:56:42.620Z,15.95
2023-05-15T06:59:09.260Z,16.10
2023-05-15T07:01:35.972Z,15.88
2023-05-15T07:04:02.688Z,15.92
2023-05-15T07:06:29.430Z,15.86
2023-05-15T07:08:56.111Z,15.88
2023-05-15T07:11:22.987Z,15.93
2023-05-15T07:13:50.742Z,15.96
2023-05-15T07:16:17.472Z,16.16
2023-05-15T07:18:44.243Z,16.44
2023-05-15T07:21:10.904Z,16.68
2023-05-15T07:23:37.618Z,16.75
2023-05-15T07:26:04.359Z,17.10
2023-05-15T07:28:31.002Z,17.31
2023-05-15T07:30:57.658Z,17.30
2023-05-15T07:33:24.609Z,17.43
2023-05-15T07:38:29.259Z,17.73
2023-05-15T07:40:55.991Z,17.88
2023-05-15T07:46:00.999Z,18.24
2023-05-15T07:48:27.615Z,18.49
2023-05-15T07:50:55.408Z,18.55
2023-05-15T07:53:22.095Z,18.30
2023-05-15T07:55:49.020Z,18.46
2023-05-15T07:58:15.770Z,18.61
2023-05-15T08:00:42.419Z,18.51
2023-05-15T08:03:09.305Z,18.58
2023-05-15T08:05:36.381Z,18.68
2023-05-15T08:08:03.141Z,18.84
2023-05-15T08:10:29.894Z,18.88
2023-05-15T08:12:56.649Z,19.11
2023-05-15T08:15:24.269Z,19.15
2023-05-15T08:17:51.514Z,19.30
2023-05-15T08:20:18.197Z,19.23
2023-05-15T08:22:44.914Z,18.69
2023-05-15T08:27:43.045Z,18.42
2023-05-15T08:30:10.087Z,18.68
2023-05-15T08:32:36.731Z,18.73
2023-05-15T08:35:03.429Z,18.68
2023-05-15T08:37:30.281Z,18.84
2023-05-15T08:39:56.916Z,19.20
2023-05-15T08:42:35.994Z,19.58
2023-05-15T08:45:03.140Z,19.69
2023-05-15T08:47:32.536Z,19.99
2023-05-15T08:50:07.034Z,19.97
2023-05-15T08:52:34.485Z,19.47
2023-05-15T08:55:02.308Z,19.12
2023-05-15T08:57:29.164Z,19.35
2023-05-15T08:59:56.998Z,19.24
2023-05-15T09:02:28.421Z,19.58
2023-05-15T09:04:55.198Z,19.79
2023-05-15T09:07:22.116Z,19.95
2023-05-15T09:09:49.751Z,20.29
2023-05-15T09:12:17.301Z,20.26
2023-05-15T09:14:44.339Z,20.37
2023-05-15T09:17:12.151Z,20.33
2023-05-15T09:24:58.872Z,20.39
2023-05-15T09:27:26.189Z,20.76
2023-05-15T09:29:56.600Z,21.01
2023-05-15T09:32:26.730Z,20.80
2023-05-15T09:34:53.396Z,20.86
2023-05-15T09:37:33.841Z,20.39
2023-05-15T09:40:11.379Z,19.96
2023-05-15T09:42:39.347Z,19.80
2023-05-15T09:45:06.797Z,20.00
2023-05-15T09:47:34.268Z,20.27
2023-05-15T09:50:01.555Z,20.80
2023-05-15T09:52:29.424Z,20.56
2023-05-15T09:54:57.142Z,19.70
2023-05-15T09:57:24.279Z,19.56
2023-05-15T09:59:51.108Z,19.36
2023-05-15T10:02:24.777Z,19.03
2023-05-15T10:04:57.101Z,18.81
2023-05-15T10:07:34.648Z,19.15
2023-05-15T10:10:02.747Z,19.74
2023-05-15T10:12:32.331Z,19.65
2023-05-15T10:15:01.199Z,19.64
2023-05-15T10:17:28.782Z,20.01
2023-05-15T10:20:00.809Z,20.56
2023-05-15T10:22:31.118Z,21.02
2023-05-15T10:25:04.125Z,21.45
2023-05-15T10:27:32.335Z,21.61
2023-05-15T10:30:00.470Z,21.32
2023-05-15T10:32:27.854Z,20.96
2023-05-15T10:34:54.936Z,20.88
2023-05-15T10:37:22.343Z,20.32
2023-05-15T10:39:50.259Z,19.93
2023-05-15T10:44:51.262Z,19.64
2023-05-15T10:47:18.001Z,20.21
2023-05-15T10:49:44.699Z,20.63
2023-05-15T10:52:11.417Z,21.11
2023-05-15T10:54:38.168Z,21.50
2023-05-15T10:57:05.625Z,21.65
2023-05-15T10:59:33.331Z,21.92
2023-05-15T11:02:20.618Z,22.04
2023-05-15T11:04:47.903Z,22.04
2023-05-15T11:07:16.690Z,22.11
2023-05-15T11:09:43.371Z,22.61
2023-05-15T11:12:11.962Z,22.39
2023-05-15T11:14:41.186Z,22.41
2023-05-15T11:17:12.556Z,22.81
2023-05-15T11:20:00.058Z,22.50
2023-05-15T11:22:32.173Z,22.68
2023-05-15T11:25:04.406Z,22.78
2023-05-15T11:27:32.611Z,23.01
2023-05-15T11:30:22.591Z,22.04
2023-05-15T11:32:52.187Z,21.82
2023-05-15T11:35:21.946Z,22.30
2023-05-15T11:37:56.558Z,22.60
2023-05-15T11:40:28.499Z,22.71
2023-05-15T11:43:19.578Z,23.26
2023-05-15T11:45:50.985Z,23.10
2023-05-15T11:50:50.073Z,23.34
2023-05-15T11:53:18.261Z,23.67
2023-05-15T11:55:45.017Z,23.65
2023-05-15T12:00:50.717Z,22.85
2023-05-15T12:03:25.374Z,22.62
2023-05-15T12:08:35.451Z,22.08
2023-05-15T12:11:03.261Z,22.60
2023-05-15T12:13:31.735Z,22.48
2023-05-15T12:15:59.516Z,22.20
2023-05-15T12:18:26.380Z,21.22
2023-05-15T12:23:32.820Z,20.23
2023-05-15T12:26:02.519Z,20.12
2023-05-15T12:31:04.351Z,19.96
2023-05-15T12:36:04.391Z,19.72
2023-05-15T12:38:31.247Z,19.25
2023-05-15T12:40:58.107Z,19.10
2023-05-15T12:43:26.334Z,19.10
2023-05-15T12:45:54.759Z,19.41
2023-05-15T12:48:22.000Z,19.70
2023-05-15T12:53:22.864Z,19.36
2023-05-15T12:55:51.270Z,19.32
2023-05-15T12:58:19.328Z,19.35
2023-05-15T13:00:51.012Z,19.57
2023-05-15T13:03:22.015Z,20.01
2023-05-15T13:05:48.796Z,20.45
2023-05-15T13:08:17.713Z,20.85
2023-05-15T13:10:45.892Z,20.86
2023-05-15T13:13:13.103Z,20.90
2023-05-15T13:15:43.121Z,20.88
2023-05-15T13:18:12.604Z,20.44
2023-05-15T13:20:42.180Z,19.97
2023-05-15T13:23:10.702Z,20.00
2023-05-15T13:25:37.421Z,20.35
2023-05-15T13:28:06.132Z,20.82
2023-05-15T13:30:39.244Z,20.96
2023-05-15T13:33:05.893Z,21.14
2023-05-15T13:35:32.908Z,21.39
2023-05-15T13:37:59.645Z,21.49
2023-05-15T13:40:28.451Z,21.64
2023-05-15T13:42:55.136Z,21.70
2023-05-15T13:45:21.878Z,21.97
2023-05-15T13:47:48.642Z,21.58
2023-05-15T13:50:16.391Z,21.61
2023-05-15T13:52:44.663Z,21.86
2023-05-15T13:55:11.656Z,21.72
2023-05-15T13:57:39.926Z,22.05
2023-05-15T14:00:07.986Z,22.22
2023-05-15T14:02:34.886Z,22.42
2023-05-15T14:05:01.655Z,22.30
2023-05-15T14:07:28.311Z,22.26
2023-05-15T14:09:54.916Z,22.14
2023-05-15T14:12:22.254Z,22.13
2023-05-15T14:14:49.269Z,21.89
2023-05-15T14:17:16.010Z,22.12
2023-05-15T14:19:43.258Z,22.27
2023-05-15T14:22:10.549Z,22.23
2023-05-15T14:24:38.526Z,22.11
2023-05-15T14:27:05.660Z,21.97
2023-05-15T14:29:32.369Z,21.77
2023-05-15T14:32:00.203Z,21.52
2023-05-15T14:37:04.430Z,21.35
2023-05-15T14:39:31.197Z,21.19
2023-05-15T14:41:57.817Z,21.26
2023-05-15T14:44:24.450Z,20.97
2023-05-15T14:47:09.085Z,20.92
2023-05-15T14:49:36.730Z,21.13
2023-05-15T14:52:04.401Z,21.22
2023-05-15T14:54:31.113Z,21.29
2023-05-15T14:56:58.470Z,20.93
2023-05-15T14:59:28.608Z,20.90
2023-05-15T15:01:55.379Z,21.01
2023-05-15T15:04:22.217Z,20.87
2023-05-15T15:06:49.016Z,20.33
2023-05-15T15:09:15.801Z,19.94
2023-05-15T15:11:43.631Z,19.50
2023-05-15T15:14:10.253Z,19.38
2023-05-15T15:16:37.023Z,19.21
2023-05-15T15:19:03.749Z,18.65
2023-05-15T15:21:30.768Z,18.37
2023-05-15T15:23:57.547Z,17.98
2023-05-15T15:26:24.282Z,17.35
2023-05-15T15:28:50.956Z,16.95
2023-05-15T15:31:17.650Z,16.73
2023-05-15T15:33:45.347Z,16.46
2023-05-15T15:36:12.098Z,16.28
2023-05-15T15:38:41.943Z,16.34
2023-05-15T15:41:08.884Z,16.27
2023-05-15T15:43:35.556Z,16.34
2023-05-15T15:46:02.325Z,16.19
2023-05-15T15:48:29.056Z,16.01
2023-05-15T15:50:55.723Z,16.12
2023-05-15T15:53:22.690Z,16.08
2023-05-15T15:55:49.375Z,16.13
2023-05-15T15:58:16.285Z,16.16
2023-05-15T16:00:43.014Z,16.29
2023-05-15T16:03:09.726Z,16.32
2023-05-15T16:05:36.433Z,16.42
2023-05-15T16:08:03.299Z,16.28
2023-05-15T16:10:30.125Z,16.34
2023-05-15T16:12:57.148Z,16.29
2023-05-15T16:15:24.343Z,16.37
2023-05-15T16:17:54.967Z,16.32
2023-05-15T16:20:22.274Z,16.19
2023-05-15T16:22:49.008Z,16.28
2023-05-15T16:25:15.709Z,16.18
2023-05-15T16:30:15.638Z,16.20
2023-05-15T16:32:42.413Z,16.30
2023-05-15T16:35:09.452Z,16.24
2023-05-15T16:40:08.700Z,16.09
2023-05-15T16:42:36.894Z,16.11
2023-05-15T16:45:04.983Z,16.04
2023-05-15T16:47:31.763Z,16.10
2023-05-15T16:49:58.519Z,16.11
2023-05-15T16:52:25.498Z,16.16
2023-05-15T16:54:52.219Z,16.20
2023-05-15T16:57:18.906Z,16.05
2023-05-15T16:59:45.748Z,16.22
2023-05-15T17:02:12.986Z,16.27
2023-05-15T17:04:39.648Z,16.16
2023-05-15T17:07:06.362Z,16.26
2023-05-15T17:09:33.034Z,16.22
2023-05-15T17:12:00.641Z,16.20
2023-05-15T17:14:27.327Z,16.25
2023-05-15T17:16:53.929Z,16.21
2023-05-15T17:19:20.675Z,16.21
2023-05-15T17:21:47.408Z,16.32
2023-05-15T17:24:16.050Z,16.25
2023-05-15T17:26:42.804Z,16.21
2023-05-15T17:29:11.086Z,16.25
2023-05-15T17:31:38.885Z,16.34
2023-05-15T17:34:05.687Z,16.38
2023-05-15T17:36:33.846Z,16.36
2023-05-15T17:39:00.840Z,16.31
2023-05-15T17:41:27.528Z,16.32
2023-05-15T17:43:54.226Z,16.34
2023-05-15T17:46:21.196Z,16.31
2023-05-15T17:48:47.948Z,16.40
2023-05-15T17:51:14.591Z,16.47
2023-05-15T17:53:41.207Z,16.48
2023-05-15T17:56:08.253Z,16.26
2023-05-15T17:58:34.916Z,16.20
2023-05-15T18:01:01.822Z,16.23
2023-05-15T18:03:29.224Z,16.12
2023-05-15T18:05:56.201Z,16.14
2023-05-15T18:08:22.960Z,16.02
2023-05-15T18:10:49.598Z,16.00
2023-05-15T18:13:16.434Z,16.01
2023-05-15T18:15:43.473Z,15.99
2023-05-15T18:18:10.284Z,15.88
2023-05-15T18:20:37.011Z,15.89
2023-05-15T18:25:40.975Z,15.63
2023-05-15T18:28:07.616Z,15.55
2023-05-15T18:30:35.311Z,15.55
2023-05-15T18:33:02.110Z,15.49
2023-05-15T18:35:29.030Z,15.49
2023-05-15T18:37:55.857Z,15.35
2023-05-15T18:40:24.683Z,15.30
2023-05-15T18:42:51.348Z,15.25
2023-05-15T18:45:19.063Z,15.11
2023-05-15T18:47:46.823Z,15.15
2023-05-15T18:50:14.539Z,15.09
2023-05-15T18:52:41.193Z,15.09
2023-05-15T18:55:09.839Z,15.15
2023-05-15T18:57:36.924Z,15.18
2023-05-15T19:00:05.353Z,14.91
2023-05-15T19:02:32.952Z,14.87
2023-05-15T19:04:59.798Z,14.93
2023-05-15T19:07:29.755Z,14.90
2023-05-15T19:09:56.536Z,14.86
2023-05-15T19:12:24.185Z,14.84
2023-05-15T19:14:50.787Z,14.83
2023-05-15T19:17:20.296Z,14.75
2023-05-15T19:19:47.482Z,14.73
2023-05-15T19:22:14.199Z,14.75
2023-05-15T19:24:41.127Z,14.70
2023-05-15T19:27:07.792Z,14.68
2023-05-15T19:29:34.791Z,14.82
2023-05-15T19:32:02.993Z,14.65
2023-05-15T19:34:29.839Z,14.67
2023-05-15T19:36:56.624Z,14.49
2023-05-15T19:39:23.251Z,14.33
2023-05-15T19:41:50.359Z,14.23
2023-05-15T19:44:16.966Z,14.36
2023-05-15T19:46:45.256Z,14.51
2023-05-15T19:49:12.092Z,14.45
2023-05-15T19:51:41.270Z,14.38
2023-05-15T19:54:07.935Z,14.42
2023-05-15T19:56:36.191Z,14.32
2023-05-15T19:59:02.911Z,13.87
2023-05-15T20:01:29.625Z,13.83
2023-05-15T20:03:56.679Z,13.86
2023-05-15T20:06:23.635Z,13.79
2023-05-15T20:08:50.439Z,13.83
2023-05-15T20:11:17.063Z,13.61
2023-05-15T20:13:43.899Z,13.79
2023-05-15T20:16:12.917Z,13.68
2023-05-15T20:18:40.285Z,13.44
2023-05-15T20:21:07.026Z,13.50
2023-05-15T20:23:33.718Z,13.34
2023-05-15T20:26:00.372Z,13.43
2023-05-15T20:28:28.366Z,13.47
2023-05-15T20:30:57.980Z,13.55
2023-05-15T20:33:25.467Z,13.66
2023-05-15T20:35:52.188Z,13.76
2023-05-15T20:38:18.849Z,13.64
2023-05-15T20:40:45.504Z,13.57
2023-05-15T20:43:12.329Z,13.62
2023-05-15T20:45:39.338Z,13.66
2023-05-15T20:48:06.954Z,13.80
2023-05-15T20:50:33.631Z,13.82
2023-05-15T20:53:00.275Z,13.65
2023-05-15T20:55:27.128Z,13.66
2023-05-15T21:00:26.770Z,13.58
2023-05-15T21:02:53.650Z,13.51
2023-05-15T21:05:20.626Z,13.43
2023-05-15T21:07:47.293Z,13.56
2023-05-15T21:10:16.254Z,13.46
2023-05-15T21:12:42.916Z,13.33
2023-05-15T21:15:10.329Z,13.43
2023-05-15T21:17:37.064Z,13.40
2023-05-15T21:20:05.214Z,13.14
2023-05-15T21:22:32.265Z,13.20
2023-05-15T21:24:58.934Z,13.19
2023-05-15T21:27:25.758Z,13.16
2023-05-15T21:29:52.438Z,13.10
2023-05-15T21:32:19.100Z,13.15
2023-05-15T21:34:45.769Z,13.14
2023-05-15T21:37:12.466Z,13.13
2023-05-15T21:39:39.158Z,13.10
2023-05-15T21:42:05.974Z,12.92
2023-05-15T21:44:34.987Z,13.13
2023-05-15T21:47:01.625Z,13.19
2023-05-15T21:49:28.297Z,13.11
2023-05-15T21:51:54.923Z,12.95
2023-05-15T21:54:21.637Z,12.94
2023-05-15T21:56:48.272Z,12.84
2023-05-15T21:59:15.029Z,12.71
2023-05-15T22:01:41.740Z,12.58
2023-05-15T22:04:08.755Z,12.57
2023-05-15T22:06:35.888Z,12.74
2023-05-15T22:09:02.605Z,12.40
2023-05-15T22:11:29.352Z,12.31
2023-05-15T22:13:55.982Z,12.47
2023-05-15T22:16:23.106Z,12.40
2023-05-15T22:18:49.992Z,12.42
2023-05-15T22:21:16.883Z,12.44
2023-05-15T22:23:43.577Z,12.45
2023-05-15T22:26:10.227Z,12.48
2023-05-15T22:28:36.948Z,12.47
2023-05-15T22:31:04.564Z,12.36
2023-05-15T22:33:31.287Z,12.04
2023-05-15T22:35:57.928Z,12.09
2023-05-15T22:38:24.671Z,12.15
2023-05-15T22:40:52.937Z,12.31
2023-05-15T22:43:20.120Z,12.31
2023-05-15T22:48:19.352Z,12.18
2023-05-15T22:50:46.056Z,12.16
2023-05-15T22:53:12.762Z,12.29
2023-05-15T22:55:39.470Z,12.11
2023-05-15T22:58:06.213Z,12.07
2023-05-15T23:00:33.456Z,12.18
2023-05-15T23:18:33.556Z,12.02
2023-05-15T23:21:02.438Z,12.11
2023-05-15T23:23:29.047Z,12.02
2023-05-15T23:25:55.764Z,11.80
2023-05-15T23:28:22.360Z,11.93
2023-05-15T23:30:49.218Z,12.09
2023-05-15T23:33:15.846Z,12.05
2023-05-15T23:35:43.444Z,12.15
2023-05-15T23:38:10.264Z,12.21
2023-05-15T23:40:36.933Z,11.88
2023-05-15T23:43:03.568Z,11.80
2023-05-15T23:45:30.252Z,12.02
2023-05-15T23:47:56.929Z,11.79
2023-05-15T23:50:23.732Z,11.92
2023-05-15T23:52:50.606Z,11.74
2023-05-15T23:55:17.376Z,11.78
2023-05-15T23:57:44.052Z,11.78
